Time;durP1;ratioP1;P1;durP2;ratioP2;P2;SDS_P1;SDS_P2;PMS_P1;PMS_P2;Temp;Humidity;BMP_temperature;BMP_pressure;BME280_temperature;BME280_humidity;BME280_pressure;Samples;Min_cycle;Max_cycle;Signal;HPM_P1;HPM_P2
2023/05/13 00:01:52;;;;;;;;;;;;;;;14.54;65.66;99082.41;5015487;28;19948;-76
2023/05/13 00:04:18;;;;;;;;;;;;;;;14.60;65.26;99084.00;5031930;28;19917;-76
2023/05/13 00:06:43;;;;;;;;;;;;;;;14.33;65.96;99086.94;5012856;28;20319;-76
2023/05/13 00:09:08;;;;;;;;;;;;;;;13.63;68.42;99081.38;5028604;28;20407;-75
2023/05/13 00:11:34;;;;;;;;;;;;;;;14.27;65.91;99087.97;5049850;28;19921;-76
2023/05/13 00:13:59;;;;;;;;;;;;;;;13.52;67.92;99086.66;5048800;28;20039;-75
2023/05/13 00:16:26;;;;;;;;;;;;;;;14.09;67.06;99093.84;5031911;28;19959;-76
2023/05/13 00:18:52;;;;;;;;;;;;;;;13.26;68.15;99090.28;5046973;28;20312;-76
2023/05/13 00:21:18;;;;;;;;;;;;;;;13.78;67.67;99092.16;5031858;28;19990;-75
2023/05/13 00:23:43;;;;;;;;;;;;;;;14.26;66.11;99089.84;5022585;28;19929;-76
2023/05/13 00:26:08;;;;;;;;;;;;;;;12.76;68.63;99097.97;5045790;28;19929;-76
2023/05/13 00:28:33;;;;;;;;;;;;;;;13.77;67.82;99085.16;5045994;28;19925;-75
2023/05/13 00:30:59;;;;;;;;;;;;;;;12.70;69.99;99097.13;5031139;28;20031;-76
2023/05/13 00:33:24;;;;;;;;;;;;;;;13.81;67.19;99092.44;5046733;28;19927;-75
2023/05/13 00:35:49;;;;;;;;;;;;;;;14.02;66.39;99088.72;5045301;28;20447;-76
2023/05/13 00:38:15;;;;;;;;;;;;;;;13.35;66.70;99091.41;5028892;28;20011;-76
2023/05/13 00:40:41;;;;;;;;;;;;;;;12.84;69.69;99097.50;5045869;28;19925;-76
2023/05/13 00:43:06;;;;;;;;;;;;;;;13.79;67.16;99086.53;5032802;28;19921;-76
2023/05/13 00:45:31;;;;;;;;;;;;;;;13.93;66.24;99089.53;5047092;28;19974;-76
2023/05/13 00:47:57;;;;;;;;;;;;;;;13.91;66.59;99088.97;5045512;28;19924;-76
2023/05/13 00:50:23;;;;;;;;;;;;;;;13.94;66.20;99089.25;5028912;28;19925;-75
2023/05/13 00:52:49;;;;;;;;;;;;;;;14.08;65.72;99089.56;5046102;28;19924;-76
2023/05/13 00:55:15;;;;;;;;;;;;;;;13.94;65.79;99091.13;5045444;28;19928;-76
2023/05/13 00:57:40;;;;;;;;;;;;;;;14.00;65.79;99084.72;5027192;28;20293;-76
2023/05/13 01:00:06;;;;;;;;;;;;;;;13.88;66.39;99081.44;5044743;28;19939;-76
2023/05/13 01:02:41;;;;;;;;;;;;;;;13.78;66.38;99089.47;5044000;28;19928;-75
2023/05/13 01:05:25;;;;;;;;;;;;;;;13.94;66.08;99085.75;5044363;28;19921;-76
2023/05/13 01:07:53;;;;;;;;;;;;;;;13.88;66.12;99084.13;5044110;28;19940;-76
2023/05/13 01:10:19;;;;;;;;;;;;;;;13.81;65.92;99087.06;5045727;28;19917;-76
2023/05/13 01:12:45;;;;;;;;;;;;;;;13.83;66.11;99081.41;5028364;28;19920;-76
2023/05/13 01:15:16;;;;;;;;;;;;;;;13.85;65.90;99090.81;5028367;28;20024;-76
2023/05/13 01:18:01;;;;;;;;;;;;;;;13.72;66.11;99082.44;5038086;28;19928;-76
2023/05/13 01:20:27;;;;;;;;;;;;;;;13.61;66.59;99091.56;5041881;28;19917;-76
2023/05/13 01:22:52;;;;;;;;;;;;;;;13.72;66.03;99088.63;5044392;28;19936;-76
2023/05/13 01:25:18;;;;;;;;;;;;;;;13.70;65.86;99098.81;5045435;28;19971;-76
2023/05/13 01:27:43;;;;;;;;;;;;;;;13.63;66.04;99103.59;5046769;28;20380;-76
2023/05/13 01:30:09;;;;;;;;;;;;;;;13.31;67.34;99109.09;5025519;28;19920;-76
2023/05/13 01:32:34;;;;;;;;;;;;;;;13.64;66.26;99109.78;5047712;28;20400;-76
2023/05/13 01:35:00;;;;;;;;;;;;;;;13.49;66.36;99111.34;5026846;28;19916;-76
2023/05/13 01:37:26;;;;;;;;;;;;;;;13.48;66.57;99116.94;5022839;28;20300;-76
2023/05/13 01:39:51;;;;;;;;;;;;;;;13.54;66.52;99111.34;5046524;28;19917;-76
2023/05/13 01:42:16;;;;;;;;;;;;;;;13.58;66.18;99121.56;5025489;28;20382;-76
2023/05/13 01:44:42;;;;;;;;;;;;;;;13.46;66.29;99116.41;5044682;28;20301;-76
2023/05/13 01:47:07;;;;;;;;;;;;;;;13.40;66.37;99112.09;5025501;28;21130;-76
2023/05/13 01:49:32;;;;;;;;;;;;;;;13.44;66.51;99114.00;5025876;28;20031;-76
2023/05/13 01:51:57;;;;;;;;;;;;;;;13.06;66.72;99111.59;5028385;28;19951;-76
2023/05/13 01:54:24;;;;;;;;;;;;;;;13.15;67.18;99115.41;5045066;28;19982;-76
2023/05/13 01:56:49;;;;;;;;;;;;;;;12.98;67.69;99112.06;5043044;28;19923;-76
2023/05/13 01:59:15;;;;;;;;;;;;;;;13.21;67.09;99114.41;5025046;28;19921;-76
2023/05/13 02:01:40;;;;;;;;;;;;;;;12.98;67.74;99114.72;5045027;28;20004;-75
2023/05/13 02:04:05;;;;;;;;;;;;;;;13.27;66.52;99112.56;5042800;28;19921;-76
2023/05/13 02:06:31;;;;;;;;;;;;;;;13.23;66.93;99114.94;5013183;28;19979;-76
2023/05/13 02:08:56;;;;;;;;;;;;;;;13.22;66.79;99112.50;5026462;28;19925;-75
2023/05/13 02:11:21;;;;;;;;;;;;;;;13.22;66.47;99116.00;5044645;28;19923;-76
2023/05/13 02:13:47;;;;;;;;;;;;;;;13.01;66.64;99108.06;5047000;28;20016;-76
2023/05/13 02:16:18;;;;;;;;;;;;;;;12.80;66.79;99113.25;5044311;28;20368;-75
2023/05/13 02:18:43;;;;;;;;;;;;;;;13.09;67.04;99110.28;5022890;28;20043;-76
2023/05/13 02:21:09;;;;;;;;;;;;;;;13.03;66.95;99116.66;5021592;28;20562;-75
2023/05/13 02:23:34;;;;;;;;;;;;;;;13.01;67.27;99116.91;5023071;28;20338;-76
2023/05/13 02:25:59;;;;;;;;;;;;;;;13.10;67.07;99111.91;5011554;28;20304;-76
2023/05/13 02:28:25;;;;;;;;;;;;;;;13.00;67.07;99123.31;5045683;28;19948;-76
2023/05/13 02:30:50;;;;;;;;;;;;;;;12.96;67.32;99122.22;5025924;28;20008;-76
2023/05/13 02:33:15;;;;;;;;;;;;;;;13.02;67.02;99126.53;5043199;28;19917;-76
2023/05/13 02:35:41;;;;;;;;;;;;;;;12.14;69.14;99131.66;5024749;28;20014;-76
2023/05/13 02:38:08;;;;;;;;;;;;;;;11.58;70.74;99136.28;5042797;28;19917;-75
2023/05/13 02:40:33;;;;;;;;;;;;;;;12.06;69.87;99137.47;5043402;28;19964;-76
2023/05/13 02:42:58;;;;;;;;;;;;;;;12.42;69.20;99136.75;5027450;28;19970;-75
2023/05/13 02:45:24;;;;;;;;;;;;;;;12.78;67.91;99131.47;5027172;28;20289;-76
2023/05/13 02:47:49;;;;;;;;;;;;;;;12.82;67.50;99134.44;5025390;28;20438;-76
2023/05/13 02:50:14;;;;;;;;;;;;;;;12.79;67.34;99122.38;5042464;28;19917;-75
2023/05/13 02:52:40;;;;;;;;;;;;;;;12.71;67.60;99124.72;5047872;28;20012;-76
2023/05/13 02:55:05;;;;;;;;;;;;;;;12.71;67.60;99124.72;5042014;28;20438;-75
2023/05/13 02:57:31;;;;;;;;;;;;;;;12.70;67.68;99125.75;5034375;28;19987;-76
2023/05/13 02:59:56;;;;;;;;;;;;;;;12.69;67.78;99124.13;5017835;28;19951;-76
2023/05/13 03:02:21;;;;;;;;;;;;;;;12.72;67.62;99120.97;5009667;28;20415;-76
2023/05/13 03:04:47;;;;;;;;;;;;;;;12.66;67.64;99120.13;5044340;28;20315;-75
2023/05/13 03:07:12;;;;;;;;;;;;;;;12.58;67.92;99119.78;5045898;28;19943;-75
2023/05/13 03:09:38;;;;;;;;;;;;;;;12.61;67.83;99121.94;5027495;28;19931;-75
2023/05/13 03:12:07;;;;;;;;;;;;;;;12.25;68.64;99125.34;5041896;28;19925;-75
2023/05/13 03:14:36;;;;;;;;;;;;;;;12.53;67.84;99125.91;5043008;28;19925;-75
2023/05/13 03:17:02;;;;;;;;;;;;;;;12.53;68.17;99119.72;5044655;28;20380;-75
2023/05/13 03:19:27;;;;;;;;;;;;;;;12.54;67.67;99119.47;5027424;28;19967;-76
2023/05/13 03:21:52;;;;;;;;;;;;;;;12.54;67.83;99122.16;5026828;28;19974;-76
2023/05/13 03:24:17;;;;;;;;;;;;;;;11.95;69.00;99131.97;5044636;28;19974;-76
2023/05/13 03:26:43;;;;;;;;;;;;;;;11.17;71.84;99134.13;5044874;28;20317;-75
2023/05/13 03:29:08;;;;;;;;;;;;;;;11.79;70.57;99138.22;5043344;28;20364;-76
2023/05/13 03:31:33;;;;;;;;;;;;;;;11.62;70.78;99128.59;5023238;28;20442;-75
2023/05/13 03:33:58;;;;;;;;;;;;;;;12.12;69.27;99134.59;5026325;28;19921;-76
2023/05/13 03:36:24;;;;;;;;;;;;;;;12.31;68.13;99143.88;5010348;28;20458;-75
2023/05/13 03:38:49;;;;;;;;;;;;;;;12.42;68.13;99134.06;5024731;28;19921;-75
2023/05/13 03:41:16;;;;;;;;;;;;;;;12.39;68.19;99145.28;5022205;28;19975;-75
2023/05/13 03:43:41;;;;;;;;;;;;;;;12.45;67.99;99155.00;5043190;28;19917;-76
2023/05/13 03:46:06;;;;;;;;;;;;;;;12.39;68.19;99151.44;5042610;28;20398;-76
2023/05/13 03:48:32;;;;;;;;;;;;;;;12.35;68.12;99146.84;5030755;28;20324;-76
2023/05/13 03:50:57;;;;;;;;;;;;;;;12.42;68.13;99144.78;5047437;28;19947;-75
2023/05/13 03:53:22;;;;;;;;;;;;;;;12.40;68.01;99139.69;5019262;28;19929;-76
2023/05/13 03:55:47;;;;;;;;;;;;;;;12.42;68.02;99137.56;5027955;28;19975;-76
2023/05/13 03:58:14;;;;;;;;;;;;;;;12.36;68.38;99143.13;5030513;28;19921;-76
2023/05/13 04:00:40;;;;;;;;;;;;;;;12.43;68.13;99138.34;5045273;28;19920;-76
2023/05/13 04:03:06;;;;;;;;;;;;;;;12.43;68.04;99138.34;5031809;28;20421;-75
2023/05/13 04:05:31;;;;;;;;;;;;;;;12.42;68.14;99142.09;5051157;28;19929;-75
2023/05/13 04:07:56;;;;;;;;;;;;;;;12.39;68.40;99139.94;5046837;28;19998;-75
2023/05/13 04:10:22;;;;;;;;;;;;;;;12.41;67.96;99138.63;5032523;28;19963;-76
2023/05/13 04:12:47;;;;;;;;;;;;;;;12.17;69.14;99141.84;5049781;28;19921;-76
2023/05/13 04:15:12;;;;;;;;;;;;;;;11.78;70.79;99141.13;5046177;28;19964;-75
2023/05/13 04:17:37;;;;;;;;;;;;;;;11.26;73.51;99144.16;5042723;28;19921;-75
2023/05/13 04:20:03;;;;;;;;;;;;;;;10.62;75.29;99146.56;5046923;28;20388;-75
2023/05/13 04:22:28;;;;;;;;;;;;;;;10.41;76.69;99150.75;5047482;28;20331;-76
2023/05/13 04:24:55;;;;;;;;;;;;;;;10.53;76.33;99152.31;5040989;28;20304;-75
2023/05/13 04:27:22;;;;;;;;;;;;;;;10.84;75.22;99158.16;5048409;28;20323;-75
2023/05/13 04:29:47;;;;;;;;;;;;;;;10.70;76.84;99162.22;5028850;28;19925;-75
2023/05/13 04:32:16;;;;;;;;;;;;;;;10.74;76.54;99169.50;5027215;28;19921;-75
2023/05/13 04:34:41;;;;;;;;;;;;;;;10.65;76.98;99168.28;5046989;28;19979;-75
2023/05/13 04:37:07;;;;;;;;;;;;;;;10.52;78.53;99165.91;5011530;28;19935;-75
2023/05/13 04:39:32;;;;;;;;;;;;;;;10.59;78.92;99165.75;5045627;28;19920;-75
2023/05/13 04:41:57;;;;;;;;;;;;;;;10.85;78.37;99159.78;5045806;28;19997;-76
2023/05/13 04:44:22;;;;;;;;;;;;;;;10.85;77.91;99165.13;5048479;28;20350;-76
2023/05/13 04:46:48;;;;;;;;;;;;;;;11.04;77.02;99166.50;5029092;28;20385;-76
2023/05/13 04:49:13;;;;;;;;;;;;;;;10.98;78.63;99170.97;5044194;28;20019;-76
2023/05/13 04:51:38;;;;;;;;;;;;;;;11.54;74.82;99169.94;5047151;28;19928;-76
2023/05/13 04:54:03;;;;;;;;;;;;;;;11.45;75.83;99166.06;5044256;28;19979;-75
2023/05/13 04:56:28;;;;;;;;;;;;;;;11.62;74.62;99168.72;5026589;28;19976;-75
2023/05/13 04:58:54;;;;;;;;;;;;;;;11.88;73.33;99162.66;5027215;28;20297;-75
2023/05/13 05:01:19;;;;;;;;;;;;;;;12.00;72.87;99168.69;5043981;28;19921;-76
2023/05/13 05:03:44;;;;;;;;;;;;;;;12.09;73.15;99167.19;5026444;28;20020;-76
2023/05/13 05:06:10;;;;;;;;;;;;;;;11.73;75.89;99173.94;5026193;28;19932;-75
2023/05/13 05:08:35;;;;;;;;;;;;;;;11.60;76.05;99171.59;5024832;28;19929;-75
2023/05/13 05:11:00;;;;;;;;;;;;;;;11.44;77.21;99177.00;5029979;28;19979;-75
2023/05/13 05:13:25;;;;;;;;;;;;;;;11.19;77.61;99174.75;5025438;28;19925;-75
2023/05/13 05:15:51;;;;;;;;;;;;;;;11.56;76.58;99175.84;5046617;28;19921;-76
2023/05/13 05:18:16;;;;;;;;;;;;;;;10.82;77.90;99170.94;5026542;28;20357;-75
2023/05/13 05:20:41;;;;;;;;;;;;;;;11.25;76.43;99174.59;5027647;28;19970;-76
2023/05/13 05:23:07;;;;;;;;;;;;;;;11.06;77.43;99185.75;5028188;28;19928;-75
2023/05/13 05:25:33;;;;;;;;;;;;;;;11.22;78.40;99169.75;5047274;28;19929;-75
2023/05/13 05:27:58;;;;;;;;;;;;;;;11.27;79.10;99187.69;5043532;28;19978;-75
2023/05/13 05:30:23;;;;;;;;;;;;;;;11.14;78.25;99186.16;5027416;28;19927;-75
2023/05/13 05:32:48;;;;;;;;;;;;;;;11.06;77.59;99196.44;5045227;28;19921;-75
2023/05/13 05:35:15;;;;;;;;;;;;;;;11.52;77.07;99185.41;5048209;28;19921;-75
2023/05/13 05:37:41;;;;;;;;;;;;;;;12.34;73.92;99188.06;5030489;28;19917;-75
2023/05/13 05:40:06;;;;;;;;;;;;;;;12.31;74.22;99185.91;5009959;28;19923;-75
2023/05/13 05:42:31;;;;;;;;;;;;;;;12.51;73.14;99186.94;5020504;28;19929;-75
2023/05/13 05:44:57;;;;;;;;;;;;;;;12.65;72.99;99190.81;5029591;28;20449;-75
2023/05/13 05:47:22;;;;;;;;;;;;;;;13.11;71.14;99188.53;5029105;28;19978;-75
2023/05/13 05:49:47;;;;;;;;;;;;;;;12.93;71.74;99192.38;5027939;28;19925;-75
2023/05/13 05:52:12;;;;;;;;;;;;;;;12.56;73.38;99197.66;5028902;28;19925;-75
2023/05/13 05:54:38;;;;;;;;;;;;;;;12.47;73.34;99203.75;5041226;28;19944;-75
2023/05/13 05:57:03;;;;;;;;;;;;;;;11.80;73.63;99192.50;5030805;28;19962;-75
2023/05/13 05:59:28;;;;;;;;;;;;;;;12.12;74.09;99189.97;5027502;28;19921;-75
2023/05/13 06:01:53;;;;;;;;;;;;;;;12.67;73.29;99201.25;5045757;28;19917;-75
2023/05/13 06:04:19;;;;;;;;;;;;;;;12.60;75.24;99198.00;5029505;28;20355;-75
2023/05/13 06:06:44;;;;;;;;;;;;;;;12.13;73.92;99196.91;5046613;28;19925;-75
2023/05/13 06:09:09;;;;;;;;;;;;;;;12.26;75.17;99199.22;5043634;28;19924;-75
2023/05/13 06:11:34;;;;;;;;;;;;;;;12.18;73.22;99196.97;5049514;28;20047;-75
2023/05/13 06:14:00;;;;;;;;;;;;;;;12.19;74.37;99198.63;5028241;28;19927;-75
2023/05/13 06:16:25;;;;;;;;;;;;;;;12.24;73.75;99195.97;5026623;28;19920;-75
2023/05/13 06:18:50;;;;;;;;;;;;;;;12.11;74.31;99193.69;5042553;28;19921;-76
2023/05/13 06:21:15;;;;;;;;;;;;;;;12.42;73.26;99192.97;5030803;28;19921;-75
2023/05/13 06:23:41;;;;;;;;;;;;;;;12.28;71.85;99200.59;5021983;28;19920;-77
2023/05/13 06:26:06;;;;;;;;;;;;;;;12.30;71.62;99187.75;5047032;28;19971;-77
2023/05/13 06:28:31;;;;;;;;;;;;;;;12.37;70.83;99192.91;5031247;28;19990;-77
2023/05/13 06:30:56;;;;;;;;;;;;;;;11.86;71.13;99197.66;5043776;28;19920;-77
2023/05/13 06:33:22;;;;;;;;;;;;;;;11.78;70.97;99198.09;5026525;28;19920;-77
2023/05/13 06:35:48;;;;;;;;;;;;;;;11.89;71.83;99199.03;5007116;28;19925;-77
2023/05/13 06:38:16;;;;;;;;;;;;;;;12.20;70.88;99208.25;5029361;28;19925;-77
2023/05/13 06:40:41;;;;;;;;;;;;;;;12.49;72.77;99205.09;5046863;28;19920;-77
2023/05/13 06:43:07;;;;;;;;;;;;;;;12.47;71.61;99201.06;5039822;28;19924;-77
2023/05/13 06:45:32;;;;;;;;;;;;;;;12.62;70.64;99198.53;5025346;28;20384;-77
2023/05/13 06:47:57;;;;;;;;;;;;;;;12.43;69.09;99205.28;5044691;28;20380;-77
2023/05/13 06:50:22;;;;;;;;;;;;;;;12.47;70.32;99203.75;5023744;28;19921;-77
2023/05/13 06:52:48;;;;;;;;;;;;;;;12.62;70.32;99204.69;5027374;28;20045;-77
2023/05/13 06:55:13;;;;;;;;;;;;;;;12.98;71.13;99188.94;5044605;28;19924;-77
2023/05/13 06:57:39;;;;;;;;;;;;;;;12.83;69.79;99197.66;5046444;28;20002;-77
2023/05/13 07:00:04;;;;;;;;;;;;;;;12.93;69.54;99197.75;5026707;28;20296;-77
2023/05/13 07:02:29;;;;;;;;;;;;;;;13.07;70.34;99196.31;5019140;28;20016;-77
2023/05/13 07:04:55;;;;;;;;;;;;;;;12.84;68.39;99201.97;5026443;28;19999;-77
2023/05/13 07:07:20;;;;;;;;;;;;;;;13.39;69.81;99198.94;5017940;28;21914;-77
2023/05/13 07:09:45;;;;;;;;;;;;;;;13.46;69.59;99194.16;5027602;28;20349;-77
2023/05/13 07:12:10;;;;;;;;;;;;;;;14.03;67.20;99191.53;5029316;28;19916;-77
2023/05/13 07:14:36;;;;;;;;;;;;;;;13.75;68.92;99192.75;5044644;28;19921;-75
2023/05/13 07:17:02;;;;;;;;;;;;;;;13.97;68.60;99196.09;5022404;28;20533;-75
2023/05/13 07:19:27;;;;;;;;;;;;;;;13.67;68.39;99195.94;5027828;28;19931;-75
2023/05/13 07:21:52;;;;;;;;;;;;;;;13.99;68.92;99195.81;5047693;28;19916;-77
2023/05/13 07:24:18;;;;;;;;;;;;;;;13.58;67.40;99189.44;5028188;28;19960;-77
2023/05/13 07:26:43;;;;;;;;;;;;;;;13.87;68.15;99182.59;5034831;28;19929;-77
2023/05/13 07:29:08;;;;;;;;;;;;;;;13.73;67.22;99191.38;5032219;28;19950;-77
2023/05/13 07:31:33;;;;;;;;;;;;;;;13.93;68.67;99188.81;5050427;28;19955;-77
2023/05/13 07:33:59;;;;;;;;;;;;;;;14.03;67.73;99191.53;5049230;28;19931;-77
2023/05/13 07:36:24;;;;;;;;;;;;;;;14.14;68.33;99187.81;5047254;28;20293;-77
2023/05/13 07:38:49;;;;;;;;;;;;;;;14.12;68.50;99189.97;5032035;28;20411;-75
2023/05/13 07:41:15;;;;;;;;;;;;;;;14.25;68.43;99195.66;5048108;28;19928;-75
2023/05/13 07:43:40;;;;;;;;;;;;;;;14.10;65.83;99187.53;5050260;28;20338;-75
2023/05/13 07:46:05;;;;;;;;;;;;;;;14.12;66.48;99187.28;5049298;28;19944;-75
2023/05/13 07:48:31;;;;;;;;;;;;;;;14.59;68.68;99184.50;5043731;28;20474;-75
2023/05/13 07:50:57;;;;;;;;;;;;;;;14.26;65.74;99183.81;5048516;28;19928;-75
2023/05/13 07:53:22;;;;;;;;;;;;;;;14.49;67.51;99190.66;5030396;28;19931;-75
2023/05/13 07:55:47;;;;;;;;;;;;;;;14.80;68.29;99181.56;5027186;28;20699;-75
2023/05/13 07:58:13;;;;;;;;;;;;;;;14.89;67.60;99185.34;5031229;28;19967;-75
2023/05/13 08:00:38;;;;;;;;;;;;;;;14.81;67.39;99179.66;5048287;28;19960;-75
2023/05/13 08:03:03;;;;;;;;;;;;;;;14.72;67.08;99178.59;5032603;28;19920;-75
2023/05/13 08:05:29;;;;;;;;;;;;;;;14.76;67.20;99180.50;5024205;28;20394;-74
2023/05/13 08:07:54;;;;;;;;;;;;;;;15.00;67.80;99181.56;5012637;28;19940;-74
2023/05/13 08:10:20;;;;;;;;;;;;;;;15.11;66.87;99176.19;5046551;28;19925;-75
2023/05/13 08:12:49;;;;;;;;;;;;;;;15.41;67.15;99171.59;5034025;28;19923;-75
2023/05/13 08:15:15;;;;;;;;;;;;;;;15.65;65.07;99180.72;5043438;28;19928;-75
2023/05/13 08:17:41;;;;;;;;;;;;;;;15.34;63.46;99173.75;5025284;28;20348;-75
2023/05/13 08:20:06;;;;;;;;;;;;;;;15.77;66.50;99175.03;5046535;28;19962;-75
2023/05/13 08:22:31;;;;;;;;;;;;;;;16.34;64.63;99178.03;5011816;28;20008;-75
2023/05/13 08:24:59;;;;;;;;;;;;;;;16.20;65.28;99170.84;5043504;28;19929;-75
2023/05/13 08:27:25;;;;;;;;;;;;;;;15.88;62.47;99165.84;5027135;28;20301;-75
2023/05/13 08:29:50;;;;;;;;;;;;;;;16.18;63.50;99171.13;5042490;28;19921;-75
2023/05/13 08:32:15;;;;;;;;;;;;;;;16.78;64.17;99159.19;5043303;28;20464;-75
2023/05/13 08:34:40;;;;;;;;;;;;;;;17.16;63.08;99168.34;5005933;28;19936;-75
2023/05/13 08:37:06;;;;;;;;;;;;;;;17.05;62.54;99162.22;5046472;28;19916;-75
2023/05/13 08:39:31;;;;;;;;;;;;;;;16.68;63.57;99164.66;5047214;28;20335;-75
2023/05/13 08:41:57;;;;;;;;;;;;;;;16.84;62.81;99163.44;5039677;28;19929;-75
2023/05/13 08:44:27;;;;;;;;;;;;;;;16.67;59.46;99162.22;5046853;28;20063;-75
2023/05/13 08:46:57;;;;;;;;;;;;;;;16.55;60.62;99162.59;5045421;28;20023;-75
2023/05/13 08:49:22;;;;;;;;;;;;;;;16.93;62.84;99166.34;5044847;28;20361;-75
2023/05/13 08:51:48;;;;;;;;;;;;;;;16.41;62.50;99172.34;5044979;28;19936;-75
2023/05/13 08:54:15;;;;;;;;;;;;;;;16.37;62.04;99164.00;5044435;28;19925;-75
2023/05/13 08:56:40;;;;;;;;;;;;;;;16.21;61.95;99159.78;5026391;28;19928;-75
2023/05/13 08:59:05;;;;;;;;;;;;;;;16.21;60.81;99153.59;5041623;28;19925;-75
2023/05/13 09:01:31;;;;;;;;;;;;;;;16.32;63.05;99155.94;5011313;28;19982;-74
2023/05/13 09:03:58;;;;;;;;;;;;;;;16.51;63.08;99166.94;5036884;28;19935;-75
2023/05/13 09:06:23;;;;;;;;;;;;;;;17.42;63.55;99158.09;5022381;28;19964;-75
2023/05/13 09:08:49;;;;;;;;;;;;;;;17.22;59.92;99159.09;5043281;28;19960;-75
2023/05/13 09:11:15;;;;;;;;;;;;;;;16.83;60.50;99158.34;5043720;28;20619;-74
2023/05/13 09:13:41;;;;;;;;;;;;;;;17.68;62.97;99156.78;5039237;28;19920;-74
2023/05/13 09:16:06;;;;;;;;;;;;;;;18.08;61.58;99152.78;5044442;28;19931;-75
2023/05/13 09:18:32;;;;;;;;;;;;;;;17.54;59.89;99156.66;5030404;28;19921;-75
2023/05/13 09:20:57;;;;;;;;;;;;;;;17.55;60.55;99155.56;5029348;28;20018;-75
2023/05/13 09:23:22;;;;;;;;;;;;;;;17.70;60.48;99154.59;5029040;28;19916;-75
2023/05/13 09:25:48;;;;;;;;;;;;;;;17.82;56.59;99155.78;5028820;28;19928;-75
2023/05/13 09:28:14;;;;;;;;;;;;;;;17.97;57.41;99166.41;5047612;28;19986;-75
2023/05/13 09:30:40;;;;;;;;;;;;;;;17.95;60.63;99163.19;5041834;28;20334;-75
2023/05/13 09:33:08;;;;;;;;;;;;;;;17.76;59.27;99167.75;5024858;28;20047;-75
2023/05/13 09:35:34;;;;;;;;;;;;;;;18.10;60.15;99162.22;5018888;28;19916;-75
2023/05/13 09:37:59;;;;;;;;;;;;;;;17.90;60.03;99163.28;5026279;28;19931;-75
2023/05/13 09:40:24;;;;;;;;;;;;;;;17.49;58.02;99172.88;5046063;28;20016;-75
2023/05/13 09:42:49;;;;;;;;;;;;;;;17.62;58.87;99160.63;5040706;28;19928;-75
2023/05/13 09:45:15;;;;;;;;;;;;;;;17.42;58.95;99164.31;5023396;28;20486;-75
2023/05/13 09:47:41;;;;;;;;;;;;;;;17.53;58.91;99148.84;5043369;28;19962;-75
2023/05/13 09:50:07;;;;;;;;;;;;;;;17.52;60.04;99158.00;5041269;28;19917;-75
2023/05/13 09:52:33;;;;;;;;;;;;;;;17.53;58.39;99152.34;5028797;28;19923;-75
2023/05/13 09:54:59;;;;;;;;;;;;;;;18.00;61.31;99158.84;5027088;28;19921;-75
2023/05/13 09:57:27;;;;;;;;;;;;;;;17.75;57.94;99155.34;5026830;28;19921;-75
2023/05/13 09:59:59;;;;;;;;;;;;;;;17.30;58.99;99160.38;5028290;28;19916;-75
2023/05/13 10:02:25;;;;;;;;;;;;;;;17.08;59.16;99158.16;5045577;28;20007;-75
2023/05/13 10:04:52;;;;;;;;;;;;;;;17.82;61.27;99161.19;5030461;28;19968;-75
2023/05/13 10:07:23;;;;;;;;;;;;;;;17.43;60.34;99160.50;5046069;28;19979;-75
2023/05/13 10:09:49;;;;;;;;;;;;;;;17.75;61.17;99149.13;5025568;28;19925;-75
2023/05/13 10:12:15;;;;;;;;;;;;;;;17.77;61.35;99155.88;5032677;28;19917;-75
2023/05/13 10:14:42;;;;;;;;;;;;;;;17.61;61.82;99157.13;5013357;28;19947;-75
2023/05/13 10:17:08;;;;;;;;;;;;;;;18.04;61.84;99154.47;5022067;28;19952;-75
2023/05/13 10:19:33;;;;;;;;;;;;;;;18.22;61.51;99156.38;5047055;28;20012;-75
2023/05/13 10:21:59;;;;;;;;;;;;;;;18.26;61.20;99152.03;5049957;28;19925;-75
2023/05/13 10:24:26;;;;;;;;;;;;;;;18.39;62.01;99159.41;5044893;28;19970;-75
2023/05/13 10:26:51;;;;;;;;;;;;;;;18.40;60.72;99155.59;5030746;28;19943;-75
2023/05/13 10:29:17;;;;;;;;;;;;;;;18.76;61.06;99158.63;5045175;28;19921;-75
2023/05/13 10:31:43;;;;;;;;;;;;;;;18.50;61.89;99148.19;5041285;28;19924;-75
2023/05/13 10:34:09;;;;;;;;;;;;;;;18.77;60.87;99152.91;5040295;28;19924;-75
2023/05/13 10:36:53;;;;;;;;;;;;;;;18.92;60.38;99144.56;5025124;28;19920;-75
2023/05/13 10:39:30;;;;;;;;;;;;;;;18.66;60.44;99146.88;5051365;28;19974;-75
2023/05/13 10:42:04;;;;;;;;;;;;;;;19.30;59.93;99148.00;5043448;28;20372;-75
2023/05/13 10:44:31;;;;;;;;;;;;;;;19.35;59.07;99140.59;5041013;28;19979;-75
2023/05/13 10:46:57;;;;;;;;;;;;;;;18.97;58.66;99141.78;5010909;28;19970;-75
2023/05/13 10:49:24;;;;;;;;;;;;;;;19.00;58.20;99143.88;5025877;28;21157;-75
2023/05/13 10:51:49;;;;;;;;;;;;;;;18.90;59.19;99143.25;5012783;28;19975;-75
2023/05/13 10:54:22;;;;;;;;;;;;;;;18.68;60.79;99147.38;5025331;28;20380;-75
2023/05/13 10:56:57;;;;;;;;;;;;;;;18.95;55.23;99141.28;5044249;28;19978;-75
2023/05/13 10:59:22;;;;;;;;;;;;;;;18.58;53.27;99144.84;5044152;28;19920;-75
2023/05/13 11:01:47;;;;;;;;;;;;;;;18.94;52.57;99136.16;5023228;28;19943;-75
2023/05/13 11:04:14;;;;;;;;;;;;;;;19.27;55.77;99145.88;5044488;28;19917;-75
2023/05/13 11:06:40;;;;;;;;;;;;;;;19.33;52.53;99142.00;5042493;28;19979;-75
2023/05/13 11:09:07;;;;;;;;;;;;;;;19.50;49.05;99142.25;5040694;28;19917;-75
2023/05/13 11:11:35;;;;;;;;;;;;;;;19.31;48.09;99146.88;5029456;28;19924;-75
2023/05/13 11:14:03;;;;;;;;;;;;;;;19.72;47.83;99141.56;5044117;28;19939;-75
2023/05/13 11:16:28;;;;;;;;;;;;;;;20.08;49.11;99153.28;5041830;28;20427;-75
2023/05/13 11:18:54;;;;;;;;;;;;;;;19.97;47.26;99141.84;5029602;28;20067;-75
2023/05/13 11:21:33;;;;;;;;;;;;;;;20.27;48.06;99145.06;5047468;28;20374;-75
2023/05/13 11:24:03;;;;;;;;;;;;;;;20.34;47.05;99143.53;5027543;28;19931;-74
2023/05/13 11:26:45;;;;;;;;;;;;;;;20.29;46.74;99140.91;5036214;28;20205;-75
2023/05/13 11:29:10;;;;;;;;;;;;;;;20.19;46.42;99132.97;5041855;28;19952;-75
2023/05/13 11:31:43;;;;;;;;;;;;;;;20.45;47.23;99136.75;5028639;28;19960;-75
2023/05/13 11:34:09;;;;;;;;;;;;;;;20.66;48.42;99139.81;5039005;28;19935;-75
2023/05/13 11:36:39;;;;;;;;;;;;;;;20.56;49.16;99134.63;5027570;28;19935;-75
2023/05/13 11:39:14;;;;;;;;;;;;;;;20.73;47.98;99145.59;5044267;28;19947;-75
2023/05/13 11:41:41;;;;;;;;;;;;;;;20.80;49.49;99146.00;5045999;28;20352;-75
2023/05/13 11:44:06;;;;;;;;;;;;;;;20.33;48.24;99141.94;5043275;28;19921;-75
2023/05/13 11:46:32;;;;;;;;;;;;;;;20.43;42.79;99136.28;5008043;28;20273;-75
2023/05/13 11:48:57;;;;;;;;;;;;;;;20.53;43.07;99146.88;5011580;28;19925;-75
2023/05/13 11:51:24;;;;;;;;;;;;;;;20.46;45.29;99140.28;5042207;28;19924;-75
2023/05/13 11:53:49;;;;;;;;;;;;;;;20.95;43.26;99134.00;5041556;28;19955;-75
2023/05/13 11:56:14;;;;;;;;;;;;;;;21.10;41.52;99139.06;5046654;28;20426;-75
2023/05/13 11:58:40;;;;;;;;;;;;;;;21.26;41.82;99146.50;5008643;28;19942;-75
2023/05/13 12:01:05;;;;;;;;;;;;;;;21.12;40.53;99136.84;5043481;28;19966;-75
2023/05/13 12:03:30;;;;;;;;;;;;;;;21.12;42.84;99142.25;5026738;28;19917;-75
2023/05/13 12:06:02;;;;;;;;;;;;;;;20.86;44.65;99139.31;5027999;28;20002;-75
2023/05/13 12:08:27;;;;;;;;;;;;;;;21.42;44.37;99138.75;5048828;28;20429;-75
2023/05/13 12:10:53;;;;;;;;;;;;;;;21.40;45.62;99138.28;5045727;28;19917;-75
2023/05/13 12:13:19;;;;;;;;;;;;;;;21.20;43.36;99133.38;5048763;28;19929;-74
2023/05/13 12:15:44;;;;;;;;;;;;;;;21.68;44.36;99131.53;5025966;28;19917;-75
2023/05/13 12:18:09;;;;;;;;;;;;;;;21.99;44.10;99124.16;5047266;28;19925;-75
2023/05/13 12:20:35;;;;;;;;;;;;;;;21.84;43.13;99126.50;5017500;28;19921;-75
2023/05/13 12:23:00;;;;;;;;;;;;;;;22.05;43.58;99122.88;5047046;28;19998;-75
2023/05/13 12:25:42;;;;;;;;;;;;;;;22.45;44.95;99120.88;5048857;28;20304;-75
2023/05/13 12:28:08;;;;;;;;;;;;;;;22.16;42.12;99129.63;5027728;28;19932;-75
2023/05/13 12:30:34;;;;;;;;;;;;;;;21.67;42.02;99132.63;5048696;28;19917;-75
2023/05/13 12:32:59;;;;;;;;;;;;;;;21.38;42.46;99126.91;5044957;28;19917;-75
2023/05/13 12:35:25;;;;;;;;;;;;;;;21.40;42.42;99132.84;5041753;28;20376;-75
2023/05/13 12:38:00;;;;;;;;;;;;;;;21.09;43.57;99132.00;5034344;28;19960;-75
2023/05/13 12:40:25;;;;;;;;;;;;;;;20.59;44.17;99123.97;5025538;28;19929;-75
2023/05/13 12:42:51;;;;;;;;;;;;;;;20.36;44.14;99122.31;5028738;28;19970;-74